Time;durP1;ratioP1;P1;durP2;ratioP2;P2;SDS_P1;SDS_P2;PMS_P1;PMS_P2;Temp;Humidity;BMP_temperature;BMP_pressure;BME280_temperature;BME280_humidity;BME280_pressure;Samples;Min_cycle;Max_cycle;Signal;HPM_P1;HPM_P2
2023/12/01 00:01:47;;;;;;;13.60;8.80;;;-2.60;99.90;;;;;;5050260;28;20222;-46
2023/12/01 00:04:15;;;;;;;14.50;9.03;;;-2.80;99.90;;;;;;5060135;28;20208;-52
2023/12/01 00:06:42;;;;;;;11.37;8.53;;;-2.90;99.90;;;;;;5061610;28;20216;-49
2023/12/01 00:09:09;;;;;;;16.53;8.67;;;-2.90;99.90;;;;;;5051912;28;20219;-53
2023/12/01 00:11:35;;;;;;;11.33;8.13;;;-2.90;99.90;;;;;;5058754;28;20398;-45
2023/12/01 00:14:02;;;;;;;15.57;9.10;;;-2.90;99.90;;;;;;5032974;28;20263;-51
2023/12/01 00:16:29;;;;;;;12.57;8.13;;;-2.90;99.90;;;;;;5047884;28;20186;-49
2023/12/01 00:18:56;;;;;;;15.57;9.07;;;-2.90;99.90;;;;;;5062895;28;20200;-46
2023/12/01 00:21:24;;;;;;;12.23;8.60;;;-2.80;99.90;;;;;;5058392;28;20241;-50
2023/12/01 00:23:51;;;;;;;14.03;9.03;;;-2.80;99.90;;;;;;5062011;28;20273;-49
2023/12/01 00:26:18;;;;;;;14.63;9.10;;;-2.90;99.90;;;;;;5058860;28;20216;-53
2023/12/01 00:28:53;;;;;;;12.90;9.00;;;-3.00;99.90;;;;;;5033926;28;20261;-51
2023/12/01 00:31:19;;;;;;;12.50;8.17;;;-3.00;99.90;;;;;;5047403;28;20223;-52
2023/12/01 00:33:46;;;;;;;11.87;8.03;;;-3.10;99.90;;;;;;5061850;28;20195;-45
2023/12/01 00:36:13;;;;;;;11.90;8.57;;;-3.10;99.90;;;;;;5054673;28;20235;-49
2023/12/01 00:38:41;;;;;;;14.03;9.37;;;-3.00;99.90;;;;;;5060527;28;20349;-48
2023/12/01 00:41:08;;;;;;;15.23;9.03;;;-3.00;99.90;;;;;;5048725;28;20205;-53
2023/12/01 00:43:36;;;;;;;14.27;8.87;;;-3.00;99.90;;;;;;5056729;28;20280;-50
2023/12/01 00:46:03;;;;;;;15.50;9.07;;;-3.00;99.90;;;;;;5033794;28;20697;-49
2023/12/01 00:48:31;;;;;;;14.90;9.67;;;-3.10;99.90;;;;;;5047897;28;20196;-48
2023/12/01 00:50:57;;;;;;;15.23;9.70;;;-3.00;99.90;;;;;;5060441;28;20204;-49
2023/12/01 00:53:24;;;;;;;14.97;9.17;;;-3.00;99.90;;;;;;5056825;28;20210;-48
2023/12/01 00:55:52;;;;;;;17.13;9.23;;;-3.00;99.90;;;;;;5060335;28;20230;-45
2023/12/01 00:58:19;;;;;;;12.67;9.17;;;-3.00;99.90;;;;;;5049829;28;20191;-51
2023/12/01 01:00:46;;;;;;;14.73;8.73;;;-3.00;99.90;;;;;;5034023;28;20290;-46
2023/12/01 01:03:13;;;;;;;12.73;8.83;;;-3.10;99.90;;;;;;5045325;28;20229;-54
2023/12/01 01:05:40;;;;;;;15.10;9.40;;;-3.10;99.90;;;;;;5059051;28;20260;-49
2023/12/01 01:08:07;;;;;;;11.83;7.50;;;-3.10;99.90;;;;;;5059948;28;20262;-49
2023/12/01 01:10:34;;;;;;;12.83;8.53;;;-3.10;99.90;;;;;;5057376;28;20284;-50
2023/12/01 01:13:02;;;;;;;15.03;9.33;;;-3.20;99.90;;;;;;5061863;28;20188;-46
2023/12/01 01:15:29;;;;;;;12.27;9.17;;;-3.20;99.90;;;;;;5028743;28;20231;-46
2023/12/01 01:17:56;;;;;;;15.23;9.57;;;-3.30;99.90;;;;;;5050507;28;20277;-50
2023/12/01 01:20:22;;;;;;;15.53;9.97;;;-3.40;99.90;;;;;;5058489;28;20619;-53
2023/12/01 01:22:49;;;;;;;16.87;9.80;;;-3.40;99.90;;;;;;5060350;28;20221;-48
2023/12/01 01:25:16;;;;;;;15.87;9.47;;;-3.40;99.90;;;;;;5057397;28;20222;-52
2023/12/01 01:27:44;;;;;;;17.07;10.40;;;-3.40;99.90;;;;;;5059310;28;20187;-50
2023/12/01 01:30:12;;;;;;;15.23;9.57;;;-3.50;99.90;;;;;;5060540;28;20188;-53
2023/12/01 01:32:39;;;;;;;13.73;9.33;;;-3.40;99.90;;;;;;5016893;28;20210;-47
2023/12/01 01:35:06;;;;;;;15.47;9.77;;;-3.40;99.90;;;;;;5061496;28;20287;-53
2023/12/01 01:37:33;;;;;;;12.50;8.13;;;-3.50;99.90;;;;;;5056522;28;20509;-47
2023/12/01 01:40:00;;;;;;;16.87;9.67;;;-3.60;99.90;;;;;;5061166;28;20274;-48
2023/12/01 01:42:28;;;;;;;15.87;8.73;;;-3.60;99.90;;;;;;5056030;28;20219;-48
2023/12/01 01:44:54;;;;;;;16.20;9.30;;;-3.60;99.90;;;;;;5060925;28;20230;-51
2023/12/01 01:47:23;;;;;;;15.43;9.07;;;-3.60;99.90;;;;;;5034059;28;20188;-51
2023/12/01 01:49:49;;;;;;;15.30;8.67;;;-3.60;99.90;;;;;;5049319;28;20191;-49
2023/12/01 01:52:17;;;;;;;15.73;9.10;;;-3.60;99.90;;;;;;5059717;28;20616;-51
2023/12/01 01:54:44;;;;;;;13.30;8.97;;;-3.70;99.90;;;;;;5060439;28;20690;-52
2023/12/01 01:57:11;;;;;;;12.93;9.00;;;-3.60;99.90;;;;;;5063804;28;20189;-54
2023/12/01 01:59:38;;;;;;;17.63;9.60;;;-3.50;99.90;;;;;;5061558;28;20227;-49
2023/12/01 02:02:05;;;;;;;15.97;9.27;;;-3.60;99.90;;;;;;5062439;28;20198;-49
2023/12/01 02:04:33;;;;;;;16.97;9.93;;;-3.60;99.90;;;;;;5023282;28;20245;-50
2023/12/01 02:07:00;;;;;;;17.90;9.60;;;-3.70;99.90;;;;;;5062992;28;20655;-46
2023/12/01 02:09:27;;;;;;;14.43;8.53;;;-3.80;99.90;;;;;;5059325;28;20237;-48
2023/12/01 02:11:54;;;;;;;13.33;9.03;;;-3.80;99.90;;;;;;5063107;28;20207;-49
2023/12/01 02:14:23;;;;;;;15.27;9.20;;;-3.80;99.90;;;;;;5059981;28;20293;-55
2023/12/01 02:16:50;;;;;;;13.30;8.70;;;-3.80;99.90;;;;;;5061956;28;20183;-46
2023/12/01 02:19:17;;;;;;;14.90;9.00;;;-3.90;99.90;;;;;;5033980;28;20676;-51
2023/12/01 02:21:46;;;;;;;14.23;9.30;;;-4.10;99.90;;;;;;5051014;28;20289;-50
2023/12/01 02:24:13;;;;;;;16.63;8.73;;;-4.10;99.90;;;;;;5061398;28;20224;-53
2023/12/01 02:26:39;;;;;;;14.73;8.50;;;-4.00;99.90;;;;;;5061406;28;20859;-47
2023/12/01 02:29:07;;;;;;;15.33;8.60;;;-4.00;99.90;;;;;;5063364;28;20217;-52
2023/12/01 02:31:34;;;;;;;13.77;8.27;;;-4.10;99.90;;;;;;5060233;28;20310;-46
2023/12/01 02:34:01;;;;;;;14.80;8.40;;;-4.20;99.90;;;;;;5034592;28;20209;-48
2023/12/01 02:36:28;;;;;;;14.33;9.03;;;-4.20;99.90;;;;;;5046770;28;20280;-48
2023/12/01 02:38:56;;;;;;;15.10;8.97;;;-4.30;99.90;;;;;;5060238;28;20264;-50
2023/12/01 02:41:23;;;;;;;15.17;9.13;;;-4.20;99.90;;;;;;5056325;28;20232;-50
2023/12/01 02:43:49;;;;;;;15.73;9.40;;;-4.20;99.90;;;;;;5062775;28;20261;-48
2023/12/01 02:46:22;;;;;;;15.03;9.17;;;-4.30;99.90;;;;;;5061285;28;20222;-52
2023/12/01 02:48:49;;;;;;;16.83;9.57;;;-4.20;99.90;;;;;;5064829;28;20206;-52
2023/12/01 02:51:15;;;;;;;14.47;8.50;;;-4.10;99.90;;;;;;5030059;28;20268;-53
2023/12/01 02:53:42;;;;;;;14.87;8.90;;;-4.10;99.90;;;;;;5050318;28;20669;-48
2023/12/01 02:56:11;;;;;;;18.57;10.70;;;-4.10;99.90;;;;;;5060305;28;20203;-50
2023/12/01 02:58:38;;;;;;;15.03;9.50;;;-4.10;99.90;;;;;;5062611;28;20206;-54
2023/12/01 03:01:06;;;;;;;14.13;9.33;;;-4.10;99.90;;;;;;5059213;28;21008;-53
2023/12/01 03:03:33;;;;;;;15.57;9.60;;;-4.00;99.90;;;;;;5062150;28;20215;-48
2023/12/01 03:05:59;;;;;;;14.30;8.97;;;-3.90;99.90;;;;;;5030836;28;20229;-51
2023/12/01 03:08:26;;;;;;;15.30;9.50;;;-3.90;99.90;;;;;;5053577;28;20264;-46
2023/12/01 03:10:54;;;;;;;13.37;8.80;;;-3.90;99.90;;;;;;5061598;28;20209;-53
2023/12/01 03:13:23;;;;;;;14.03;8.90;;;-3.90;99.90;;;;;;5060350;28;20966;-47
2023/12/01 03:15:50;;;;;;;17.30;10.03;;;-3.90;99.90;;;;;;5063380;28;20360;-50
2023/12/01 03:18:17;;;;;;;20.07;11.07;;;-3.90;99.90;;;;;;5058974;28;20219;-48
2023/12/01 03:20:44;;;;;;;19.37;10.13;;;-3.80;99.90;;;;;;5062220;28;20194;-47
2023/12/01 03:23:11;;;;;;;17.20;10.07;;;-3.80;99.90;;;;;;5021808;28;20222;-45
2023/12/01 03:25:37;;;;;;;16.07;10.30;;;-3.70;99.90;;;;;;5063321;28;20214;-50
2023/12/01 03:28:05;;;;;;;20.10;9.63;;;-3.70;99.90;;;;;;5058462;28;20252;-53
2023/12/01 03:30:33;;;;;;;19.00;10.80;;;-3.70;99.90;;;;;;5063056;28;20209;-50
2023/12/01 03:32:59;;;;;;;16.73;10.17;;;-3.70;99.90;;;;;;5058980;28;20191;-50
2023/12/01 03:35:26;;;;;;;17.33;10.97;;;-3.60;99.90;;;;;;5060326;28;20222;-48
2023/12/01 03:37:56;;;;;;;16.00;10.30;;;-3.60;99.90;;;;;;5029571;28;20203;-51
2023/12/01 03:40:23;;;;;;;20.40;11.53;;;-3.60;99.90;;;;;;5054721;28;20210;-49
2023/12/01 03:42:51;;;;;;;17.27;10.60;;;-3.60;99.90;;;;;;5062863;28;20194;-49
2023/12/01 03:45:18;;;;;;;19.53;10.43;;;-3.60;99.90;;;;;;5058311;28;20222;-48
2023/12/01 03:47:48;;;;;;;19.47;10.80;;;-3.50;99.90;;;;;;5063125;28;20203;-47
2023/12/01 03:50:15;;;;;;;19.03;11.47;;;-3.50;99.90;;;;;;5059241;28;20892;-47
2023/12/01 03:52:45;;;;;;;18.70;11.70;;;-3.50;99.90;;;;;;5059684;28;20198;-54
2023/12/01 03:55:13;;;;;;;19.57;11.73;;;-3.50;99.90;;;;;;5012892;28;20975;-48
2023/12/01 03:57:42;;;;;;;17.10;10.33;;;-3.50;99.90;;;;;;5062960;28;20196;-49
2023/12/01 04:00:13;;;;;;;20.03;12.03;;;-3.50;99.90;;;;;;5058695;28;20613;-48
2023/12/01 04:02:41;;;;;;;18.80;11.13;;;-3.40;99.90;;;;;;5062736;28;20665;-45
2023/12/01 04:05:17;;;;;;;17.47;11.40;;;-3.30;99.90;;;;;;5058105;28;20242;-52
2023/12/01 04:07:45;;;;;;;17.77;10.73;;;-3.30;99.90;;;;;;5062396;28;20248;-48
2023/12/01 04:10:12;;;;;;;18.63;10.67;;;-3.30;99.90;;;;;;5021179;28;20762;-47
2023/12/01 04:12:44;;;;;;;19.30;12.10;;;-3.30;99.90;;;;;;5062563;28;20195;-50
2023/12/01 04:15:13;;;;;;;19.90;12.37;;;-3.20;99.90;;;;;;5056325;28;20265;-46
2023/12/01 04:17:42;;;;;;;21.00;11.57;;;-3.30;99.90;;;;;;5062998;28;20440;-45
2023/12/01 04:20:20;;;;;;;21.33;12.63;;;-3.30;99.90;;;;;;5057424;28;20511;-50
2023/12/01 04:22:52;;;;;;;19.50;11.07;;;-3.30;99.90;;;;;;5060750;28;20202;-47
2023/12/01 04:25:19;;;;;;;21.83;11.83;;;-3.30;99.90;;;;;;5016859;28;20361;-47
2023/12/01 04:27:48;;;;;;;19.60;11.53;;;-3.30;99.90;;;;;;5062810;28;20338;-46
2023/12/01 04:30:15;;;;;;;18.33;11.53;;;-3.30;99.90;;;;;;5041171;28;20206;-46
2023/12/01 04:32:43;;;;;;;21.47;11.60;;;-3.30;99.90;;;;;;5051810;28;20564;-53
2023/12/01 04:35:12;;;;;;;22.23;12.50;;;-3.30;99.90;;;;;;5057795;28;20222;-49
2023/12/01 04:37:40;;;;;;;20.07;12.13;;;-3.30;99.90;;;;;;5059984;28;20565;-51
2023/12/01 04:40:13;;;;;;;16.07;10.57;;;-3.30;99.90;;;;;;5030656;28;20968;-46
2023/12/01 04:42:40;;;;;;;19.77;10.93;;;-3.30;99.90;;;;;;5049492;28;20209;-51
2023/12/01 04:45:11;;;;;;;19.50;10.77;;;-3.40;99.90;;;;;;5059921;28;20286;-50
2023/12/01 04:47:39;;;;;;;19.93;10.73;;;-3.40;99.90;;;;;;5056301;28;20648;-52
2023/12/01 04:50:12;;;;;;;16.70;10.03;;;-3.40;99.90;;;;;;5048472;28;23723;-47
2023/12/01 04:52:41;;;;;;;21.67;10.60;;;-3.40;99.90;;;;;;5054200;28;20195;-52
2023/12/01 04:55:11;;;;;;;20.87;11.23;;;-3.40;99.90;;;;;;5059766;28;20237;-46
2023/12/01 04:57:38;;;;;;;19.10;9.93;;;-3.40;99.90;;;;;;5019497;28;20206;-52
2023/12/01 05:00:18;;;;;;;17.73;10.77;;;-3.30;99.90;;;;;;5059780;28;20186;-47
2023/12/01 05:02:47;;;;;;;18.30;9.97;;;-3.30;99.90;;;;;;5057050;28;20194;-45
2023/12/01 05:05:14;;;;;;;19.27;10.57;;;-3.30;99.90;;;;;;5057548;28;20238;-52
2023/12/01 05:07:43;;;;;;;17.83;9.87;;;-3.30;99.90;;;;;;5053675;28;20886;-46
2023/12/01 05:10:14;;;;;;;22.37;11.17;;;-3.30;99.90;;;;;;5059978;28;20638;-49
2023/12/01 05:12:43;;;;;;;15.33;9.20;;;-3.30;99.90;;;;;;5018839;28;20451;-48
2023/12/01 05:15:15;;;;;;;16.93;10.20;;;-3.30;99.90;;;;;;5053817;28;20293;-51
2023/12/01 05:17:44;;;;;;;18.27;10.03;;;-3.50;99.90;;;;;;5060005;28;20304;-47
2023/12/01 05:20:15;;;;;;;18.43;9.87;;;-3.50;99.90;;;;;;5058763;28;20244;-53
2023/12/01 05:22:45;;;;;;;18.50;11.23;;;-3.50;99.90;;;;;;5048271;28;20269;-46
2023/12/01 05:25:13;;;;;;;21.67;12.50;;;-3.50;99.90;;;;;;5047808;28;20222;-47
2023/12/01 05:27:42;;;;;;;20.13;10.70;;;-3.60;99.90;;;;;;5036414;28;20227;-44
2023/12/01 05:30:12;;;;;;;20.00;11.40;;;-3.60;99.90;;;;;;5038334;28;20215;-48
2023/12/01 05:32:39;;;;;;;19.33;11.40;;;-3.70;99.90;;;;;;5065291;28;20551;-51
2023/12/01 05:35:10;;;;;;;21.77;11.57;;;-3.70;99.90;;;;;;5060373;28;20206;-47
2023/12/01 05:37:38;;;;;;;20.57;11.57;;;-3.80;99.90;;;;;;5051980;28;20523;-49
2023/12/01 05:40:09;;;;;;;20.17;11.63;;;-3.80;99.90;;;;;;5059023;28;20218;-48
2023/12/01 05:42:36;;;;;;;23.03;11.93;;;-3.80;99.90;;;;;;5031897;28;20558;-45
2023/12/01 05:45:05;;;;;;;24.67;12.13;;;-3.70;99.90;;;;;;5037704;28;20228;-50
2023/12/01 05:47:31;;;;;;;22.10;11.50;;;-3.70;99.90;;;;;;5064526;28;20210;-51
2023/12/01 05:49:58;;;;;;;22.87;11.43;;;-3.70;99.90;;;;;;5055045;28;20654;-54
2023/12/01 05:52:25;;;;;;;19.50;11.37;;;-3.70;99.90;;;;;;5062344;28;20227;-47
2023/12/01 05:54:52;;;;;;;21.10;10.97;;;-3.80;99.90;;;;;;5054745;28;20215;-52
2023/12/01 05:57:21;;;;;;;22.17;12.07;;;-3.90;99.90;;;;;;5030435;28;20959;-47
2023/12/01 05:59:48;;;;;;;25.73;11.73;;;-3.90;99.90;;;;;;5057347;28;20199;-52
2023/12/01 06:02:15;;;;;;;21.37;12.00;;;-3.90;99.90;;;;;;5049612;28;20195;-46
2023/12/01 06:04:42;;;;;;;19.97;11.67;;;-4.00;99.90;;;;;;5063854;28;20219;-52
2023/12/01 06:07:09;;;;;;;20.33;11.57;;;-4.00;99.90;;;;;;5059708;28;20921;-44
2023/12/01 06:09:36;;;;;;;25.83;11.63;;;-4.00;99.90;;;;;;5051911;28;20332;-49
2023/12/01 06:12:03;;;;;;;23.60;11.13;;;-4.00;99.90;;;;;;5057856;28;20207;-45
2023/12/01 06:14:31;;;;;;;20.07;10.80;;;-4.00;99.90;;;;;;5024384;28;20226;-48
2023/12/01 06:16:58;;;;;;;21.43;11.67;;;-3.90;99.90;;;;;;5050258;28;20660;-53
2023/12/01 06:19:26;;;;;;;23.27;11.90;;;-3.90;99.90;;;;;;5056260;28;20199;-46
2023/12/01 06:21:53;;;;;;;19.60;11.27;;;-3.90;99.90;;;;;;5060976;28;20289;-51
2023/12/01 06:24:21;;;;;;;23.17;11.10;;;-4.00;99.90;;;;;;5053341;28;20257;-50
2023/12/01 06:26:49;;;;;;;25.90;11.63;;;-3.90;99.90;;;;;;5055265;28;20277;-47
2023/12/01 06:29:16;;;;;;;24.63;12.43;;;-3.90;99.90;;;;;;5032334;28;20203;-46
2023/12/01 06:31:44;;;;;;;22.83;12.33;;;-4.00;99.90;;;;;;5050287;28;20626;-52
2023/12/01 06:34:11;;;;;;;24.93;12.70;;;-4.00;99.90;;;;;;5063327;28;20197;-46
2023/12/01 06:36:38;;;;;;;26.23;13.17;;;-4.00;99.90;;;;;;5052412;28;20215;-57
2023/12/01 06:39:10;;;;;;;24.83;11.87;;;-4.10;99.90;;;;;;5054029;28;20255;-46
2023/12/01 06:41:37;;;;;;;22.90;10.83;;;-4.10;99.90;;;;;;5060025;28;20282;-52
2023/12/01 06:44:04;;;;;;;21.63;11.77;;;-4.10;99.90;;;;;;5030737;28;20215;-51
2023/12/01 06:46:31;;;;;;;26.60;12.00;;;-4.10;99.90;;;;;;5057382;28;20199;-53
2023/12/01 06:49:00;;;;;;;21.83;11.37;;;-4.20;99.90;;;;;;5052916;28;20213;-54
2023/12/01 06:51:27;;;;;;;27.17;12.10;;;-4.20;99.90;;;;;;5042176;28;20215;-51
2023/12/01 06:53:56;;;;;;;24.87;12.67;;;-4.30;99.90;;;;;;5049762;28;20296;-45
2023/12/01 06:56:22;;;;;;;20.93;11.43;;;-4.20;99.90;;;;;;5059526;28;20218;-50
2023/12/01 06:58:49;;;;;;;27.20;12.67;;;-4.20;99.90;;;;;;5059700;28;20248;-47
2023/12/01 07:01:18;;;;;;;24.87;12.73;;;-4.20;99.90;;;;;;5033475;28;20206;-45
2023/12/01 07:03:45;;;;;;;20.73;11.33;;;-4.20;99.90;;;;;;5049572;28;20203;-49
2023/12/01 07:06:14;;;;;;;23.97;12.23;;;-4.20;99.90;;;;;;5056863;28;20253;-46
2023/12/01 07:08:41;;;;;;;26.00;13.20;;;-4.20;99.90;;;;;;5059560;28;20210;-52
2023/12/01 07:11:08;;;;;;;23.73;12.17;;;-4.10;99.90;;;;;;5052177;28;20237;-54
2023/12/01 07:13:35;;;;;;;28.70;13.53;;;-4.10;99.90;;;;;;5059777;28;20205;-52
2023/12/01 07:16:09;;;;;;;27.33;12.37;;;-4.10;99.90;;;;;;5031263;28;20207;-51
2023/12/01 07:18:38;;;;;;;29.37;13.67;;;-4.10;99.90;;;;;;5050749;28;20531;-52
2023/12/01 07:21:06;;;;;;;23.37;12.30;;;-4.00;99.90;;;;;;5055632;28;20719;-46
2023/12/01 07:23:36;;;;;;;21.53;13.17;;;-4.00;99.90;;;;;;5061036;28;20194;-51
2023/12/01 07:26:03;;;;;;;29.87;12.90;;;-4.00;99.90;;;;;;5053815;28;20254;-47
2023/12/01 07:28:30;;;;;;;25.73;12.73;;;-4.20;99.90;;;;;;5061711;28;20201;-52
2023/12/01 07:30:59;;;;;;;27.27;13.03;;;-4.30;99.90;;;;;;5030407;28;20199;-47
2023/12/01 07:33:26;;;;;;;24.73;12.50;;;-4.30;99.90;;;;;;5061576;28;20245;-52
2023/12/01 07:35:57;;;;;;;25.80;13.07;;;-4.30;99.90;;;;;;5044923;28;20225;-49
2023/12/01 07:38:23;;;;;;;24.40;12.00;;;-4.30;99.90;;;;;;5062756;28;20248;-45
2023/12/01 07:40:52;;;;;;;25.60;13.33;;;-4.30;99.90;;;;;;5050770;28;21009;-52
2023/12/01 07:43:21;;;;;;;24.97;13.00;;;-4.30;99.90;;;;;;5063102;28;20207;-47
2023/12/01 07:45:48;;;;;;;23.27;11.80;;;-4.30;99.90;;;;;;5023283;28;20250;-45
2023/12/01 07:48:14;;;;;;;22.37;12.13;;;-4.30;99.90;;;;;;5061050;28;20213;-47
2023/12/01 07:50:41;;;;;;;27.20;12.80;;;-4.30;99.90;;;;;;5047139;28;20291;-51
2023/12/01 07:53:08;;;;;;;26.77;13.20;;;-4.20;99.90;;;;;;5054296;28;20256;-48
2023/12/01 07:55:35;;;;;;;27.23;12.73;;;-4.10;99.90;;;;;;5048780;28;20203;-46
2023/12/01 07:58:03;;;;;;;26.13;13.50;;;-4.10;99.90;;;;;;5053599;28;20218;-46
2023/12/01 08:00:30;;;;;;;26.23;12.83;;;-4.10;99.90;;;;;;5044906;28;20304;-49
2023/12/01 08:02:57;;;;;;;25.57;12.50;;;-4.20;99.90;;;;;;5026450;28;20264;-50
2023/12/01 08:05:24;;;;;;;27.70;13.47;;;-4.20;99.90;;;;;;5039072;28;20255;-45
2023/12/01 08:07:52;;;;;;;29.80;13.40;;;-4.20;99.90;;;;;;5050037;28;20745;-50
2023/12/01 08:10:19;;;;;;;26.80;13.23;;;-4.20;99.90;;;;;;5054110;28;20293;-49
2023/12/01 08:12:49;;;;;;;28.43;13.40;;;-4.10;99.90;;;;;;5048816;28;20205;-49
2023/12/01 08:15:18;;;;;;;23.90;12.47;;;-4.10;99.90;;;;;;5056490;28;20207;-47
2023/12/01 08:17:46;;;;;;;25.90;12.73;;;-4.00;99.90;;;;;;5019572;28;20288;-50
2023/12/01 08:20:14;;;;;;;23.67;11.40;;;-4.00;99.90;;;;;;5033525;28;20326;-47
2023/12/01 08:22:43;;;;;;;25.53;13.20;;;-4.00;99.90;;;;;;5044988;28;20287;-45
2023/12/01 08:25:10;;;;;;;30.90;14.50;;;-4.00;99.90;;;;;;5055493;28;20215;-53
2023/12/01 08:27:39;;;;;;;25.63;12.60;;;-4.00;99.90;;;;;;5054058;28;20195;-50
2023/12/01 08:30:07;;;;;;;28.63;13.70;;;-4.10;99.90;;;;;;5057721;28;20194;-52
2023/12/01 08:32:35;;;;;;;26.77;13.87;;;-4.10;99.90;;;;;;5054503;28;20198;-50
2023/12/01 08:35:03;;;;;;;27.50;12.07;;;-4.10;99.90;;;;;;5029315;28;20634;-50
2023/12/01 08:37:30;;;;;;;26.90;13.20;;;-4.10;99.90;;;;;;5047254;28;20703;-46
2023/12/01 08:39:57;;;;;;;26.20;12.97;;;-4.10;99.90;;;;;;5052438;28;20264;-59
2023/12/01 08:42:24;;;;;;;24.97;12.03;;;-4.00;99.90;;;;;;5058466;28;20194;-46
2023/12/01 08:44:51;;;;;;;25.20;12.77;;;-4.00;99.90;;;;;;5052160;28;20237;-49
2023/12/01 08:47:21;;;;;;;25.77;12.67;;;-3.90;99.90;;;;;;5049987;28;20369;-50
2023/12/01 08:49:50;;;;;;;25.60;12.50;;;-3.90;99.90;;;;;;5027279;28;20200;-47
2023/12/01 08:52:17;;;;;;;24.03;12.70;;;-3.80;99.90;;;;;;5045914;28;20329;-46
2023/12/01 08:54:44;;;;;;;27.43;12.97;;;-3.80;99.90;;;;;;5054123;28;20222;-49
2023/12/01 08:57:11;;;;;;;26.07;12.33;;;-3.80;99.90;;;;;;5054963;28;20190;-47
2023/12/01 08:59:38;;;;;;;27.20;12.67;;;-3.80;99.90;;;;;;5043334;28;20214;-52
2023/12/01 09:02:05;;;;;;;28.07;13.07;;;-3.70;99.90;;;;;;5053507;28;20578;-52
2023/12/01 09:04:33;;;;;;;29.00;13.13;;;-3.70;99.90;;;;;;5063081;28;20266;-47
2023/12/01 09:07:01;;;;;;;22.53;11.80;;;-3.60;99.90;;;;;;5033805;28;20588;-52
2023/12/01 09:09:28;;;;;;;28.53;13.63;;;-3.50;99.90;;;;;;5051772;28;20198;-46
2023/12/01 09:11:55;;;;;;;27.93;12.00;;;-3.40;99.90;;;;;;5056680;28;20214;-53
2023/12/01 09:14:22;;;;;;;23.57;11.40;;;-3.40;99.90;;;;;;5054689;28;20308;-50
2023/12/01 09:16:49;;;;;;;24.30;12.03;;;-3.40;99.90;;;;;;5065898;28;20194;-46
2023/12/01 09:19:15;;;;;;;20.43;12.17;;;-3.40;99.90;;;;;;5051953;28;20861;-48
2023/12/01 09:21:42;;;;;;;24.67;12.20;;;-3.40;99.90;;;;;;5029789;28;20255;-49
2023/12/01 09:24:10;;;;;;;24.53;12.63;;;-3.30;99.90;;;;;;5051897;28;20222;-50
2023/12/01 09:26:37;;;;;;;31.30;13.47;;;-3.20;99.90;;;;;;5055289;28;20637;-48
2023/12/01 09:29:04;;;;;;;23.30;12.17;;;-3.00;99.90;;;;;;5062711;28;20241;-52
2023/12/01 09:31:31;;;;;;;26.00;13.33;;;-2.80;99.90;;;;;;5052837;28;20237;-47
2023/12/01 09:33:58;;;;;;;27.47;13.50;;;-2.80;99.90;;;;;;5056272;28;20232;-52
2023/12/01 09:36:26;;;;;;;23.70;12.90;;;-2.60;99.90;;;;;;5030572;28;20234;-47
2023/12/01 09:38:53;;;;;;;29.53;14.60;;;-2.40;99.90;;;;;;5057147;28;20204;-54
2023/12/01 09:41:21;;;;;;;26.83;13.03;;;-2.40;99.90;;;;;;5044537;28;20230;-48
2023/12/01 09:43:48;;;;;;;23.73;13.17;;;-2.50;99.90;;;;;;5064000;28;20241;-47
2023/12/01 09:46:16;;;;;;;22.87;12.87;;;-2.50;99.90;;;;;;5052269;28;20250;-46
2023/12/01 09:48:46;;;;;;;25.03;12.97;;;-2.50;99.90;;;;;;5065686;28;20193;-46
2023/12/01 09:51:14;;;;;;;24.53;13.37;;;-2.50;99.90;;;;;;5047232;28;20214;-45
2023/12/01 09:53:41;;;;;;;22.80;12.43;;;-2.50;99.90;;;;;;5029536;28;20282;-48
2023/12/01 09:56:10;;;;;;;25.60;13.47;;;-2.50;99.90;;;;;;5049123;28;20227;-53
2023/12/01 09:58:39;;;;;;;26.37;12.37;;;-2.40;99.90;;;;;;5056446;28;20205;-47
2023/12/01 10:01:07;;;;;;;23.77;12.20;;;-2.40;99.90;;;;;;5061027;28;20208;-54
2023/12/01 10:03:34;;;;;;;22.30;12.80;;;-2.30;99.90;;;;;;5050223;28;20207;-45
2023/12/01 10:06:01;;;;;;;21.20;11.90;;;-2.30;99.90;;;;;;5054457;28;20260;-54
2023/12/01 10:08:28;;;;;;;22.50;12.03;;;-2.30;99.90;;;;;;5032833;28;20204;-49
2023/12/01 10:10:55;;;;;;;21.57;11.63;;;-2.20;99.90;;;;;;5053373;28;20210;-53
2023/12/01 10:13:22;;;;;;;19.93;11.23;;;-2.20;99.90;;;;;;5053622;28;20223;-46
2023/12/01 10:15:50;;;;;;;25.00;12.83;;;-2.10;99.90;;;;;;5064172;28;20291;-51
2023/12/01 10:18:19;;;;;;;22.90;11.00;;;-2.00;99.90;;;;;;5052008;28;20818;-49
2023/12/01 10:20:57;;;;;;;23.70;11.77;;;-2.00;99.90;;;;;;5054510;28;20214;-47
2023/12/01 10:23:24;;;;;;;21.43;11.23;;;-2.00;99.90;;;;;;5030560;28;20221;-47
2023/12/01 10:25:52;;;;;;;20.07;11.97;;;-1.90;99.90;;;;;;5059455;28;20670;-53
2023/12/01 10:28:20;;;;;;;23.13;12.23;;;-1.90;99.90;;;;;;5045391;28;21526;-50
2023/12/01 10:30:56;;;;;;;20.03;11.63;;;-1.80;99.90;;;;;;5063377;28;20620;-49
2023/12/01 10:33:23;;;;;;;20.23;11.87;;;-1.80;99.90;;;;;;5055325;28;20852;-47
2023/12/01 10:36:01;;;;;;;19.47;11.60;;;-1.70;99.90;;;;;;5048529;28;20274;-46
2023/12/01 10:38:29;;;;;;;19.97;11.73;;;-1.60;99.90;;;;;;5058774;28;20275;-45
2023/12/01 10:40:57;;;;;;;20.73;11.63;;;-1.60;99.90;;;;;;5025435;28;20208;-55
2023/12/01 10:43:26;;;;;;;22.17;12.23;;;-1.50;99.90;;;;;;5046946;28;23040;-51
2023/12/01 10:45:55;;;;;;;21.23;11.40;;;-1.30;99.90;;;;;;5061692;28;20583;-53
2023/12/01 10:48:22;;;;;;;23.50;11.80;;;-1.10;99.90;;;;;;5059010;28;20270;-50
2023/12/01 10:50:52;;;;;;;22.10;11.87;;;-1.00;99.90;;;;;;5050100;28;20204;-45
2023/12/01 10:53:19;;;;;;;19.13;11.47;;;-1.00;99.90;;;;;;5051994;28;20209;-49
2023/12/01 10:55:48;;;;;;;19.07;11.00;;;-0.90;99.90;;;;;;5020753;28;20357;-50
2023/12/01 10:58:20;;;;;;;18.97;10.53;;;-0.90;99.90;;;;;;5050951;28;20200;-49
2023/12/01 11:00:49;;;;;;;18.00;10.03;;;-0.90;99.90;;;;;;5047774;28;23080;-47
2023/12/01 11:03:19;;;;;;;18.17;10.27;;;-0.80;99.90;;;;;;5061630;28;20251;-52
2023/12/01 11:05:49;;;;;;;17.60;10.50;;;-0.70;99.90;;;;;;5052429;28;20221;-47
2023/12/01 11:08:35;;;;;;;16.47;8.87;;;-0.60;99.90;;;;;;5053149;28;20209;-52
2023/12/01 11:11:15;;;;;;;16.10;10.20;;;-0.40;99.90;;;;;;5026790;28;20310;-55
2023/12/01 11:13:57;;;;;;;17.20;9.10;;;-0.30;99.90;;;;;;5050517;28;20201;-46
2023/12/01 11:16:24;;;;;;;13.70;8.57;;;-0.20;99.90;;;;;;5046943;28;20213;-51
2023/12/01 11:18:55;;;;;;;15.53;8.97;;;-0.10;99.90;;;;;;5057073;28;20263;-52
2023/12/01 11:21:22;;;;;;;13.80;8.07;;;-0.10;99.90;;;;;;5048522;28;20206;-53
2023/12/01 11:23:49;;;;;;;15.75;10.77;;;0.00;99.90;;;;;;5047982;28;21070;-46
2023/12/01 11:26:17;;;;;;;12.50;8.37;;;0.20;99.90;;;;;;5030321;28;20229;-53
2023/12/01 11:28:46;;;;;;;13.73;8.63;;;0.20;99.90;;;;;;5046719;28;20194;-46
2023/12/01 11:31:19;;;;;;;14.30;8.30;;;0.20;99.90;;;;;;5055234;28;20202;-50
2023/12/01 11:33:47;;;;;;;16.33;9.37;;;0.30;99.90;;;;;;5051797;28;20976;-48
2023/12/01 11:36:24;;;;;;;12.23;8.13;;;0.30;99.90;;;;;;5062115;28;20216;-50
2023/12/01 11:39:27;;;;;;;10.87;7.47;;;0.40;99.90;;;;;;5041951;28;20213;-49
2023/12/01 11:42:15;;;;;;;12.47;7.10;;;0.40;99.90;;;;;;5027178;28;20293;-47
2023/12/01 11:44:43;;;;;;;15.40;8.23;;;0.50;99.90;;;;;;5033078;28;21113;-47
2023/12/01 11:47:13;;;;;;;12.30;7.93;;;0.50;99.90;;;;;;5047412;28;20301;-47
2023/12/01 11:49:43;;;;;;;13.53;8.17;;;0.50;99.90;;;;;;5049588;28;20244;-54
2023/12/01 11:52:14;;;;;;;13.40;8.63;;;0.50;99.90;;;;;;5042795;28;23600;-50
2023/12/01 11:54:41;;;;;;;14.23;7.87;;;0.60;99.90;;;;;;5041573;28;20222;-54
2023/12/01 11:57:10;;;;;;;11.40;7.60;;;0.50;99.90;;;;;;5029753;28;20244;-50
2023/12/01 11:59:37;;;;;;;12.43;7.90;;;0.50;99.90;;;;;;5049552;28;20610;-47
2023/12/01 12:02:04;;;;;;;12.03;7.53;;;0.50;99.90;;;;;;5050359;28;20194;-51
2023/12/01 12:04:32;;;;;;;10.63;6.23;;;0.50;99.90;;;;;;5053453;28;20233;-51
2023/12/01 12:07:00;;;;;;;11.50;7.93;;;0.60;99.90;;;;;;5046159;28;20816;-50
2023/12/01 12:09:31;;;;;;;12.60;7.43;;;0.60;99.90;;;;;;5050395;28;20216;-46
2023/12/01 12:11:59;;;;;;;12.30;6.93;;;0.60;99.90;;;;;;5022494;28;20211;-50
2023/12/01 12:14:28;;;;;;;10.10;6.73;;;0.60;99.90;;;;;;5060861;28;20301;-47
2023/12/01 12:16:56;;;;;;;12.13;7.13;;;0.60;99.90;;;;;;5042841;28;20202;-48
2023/12/01 12:19:23;;;;;;;12.60;6.97;;;0.60;99.90;;;;;;5061104;28;20194;-47
2023/12/01 12:21:50;;;;;;;13.43;6.77;;;0.60;99.90;;;;;;5049747;28;20809;-50
2023/12/01 12:24:17;;;;;;;12.47;6.80;;;0.70;99.90;;;;;;5060638;28;20200;-49
2023/12/01 12:26:56;;;;;;;11.93;7.60;;;0.60;99.90;;;;;;5017444;28;20588;-53
2023/12/01 12:29:23;;;;;;;10.03;7.00;;;0.70;99.90;;;;;;5059584;28;20195;-50
2023/12/01 12:31:51;;;;;;;9.67;6.70;;;0.60;99.90;;;;;;5040564;28;20269;-54
2023/12/01 12:34:19;;;;;;;10.13;7.67;;;0.60;99.90;;;;;;5061805;28;20605;-51
2023/12/01 12:36:46;;;;;;;13.23;7.37;;;0.60;99.90;;;;;;5058244;28;20200;-53